createdAt,value
2023-11-17T00:00:24.473Z,2.67
2023-11-17T00:04:13.347Z,2.22
2023-11-17T00:07:38.882Z,2.50
2023-11-17T00:11:04.874Z,2.40
2023-11-17T00:14:30.340Z,2.95
2023-11-17T00:17:56.293Z,2.80
2023-11-17T00:21:24.307Z,2.88
2023-11-17T00:24:50.075Z,2.50
2023-11-17T00:28:15.554Z,2.75
2023-11-17T00:31:41.362Z,2.97
2023-11-17T00:35:08.264Z,3.05
2023-11-17T00:38:37.661Z,2.65
2023-11-17T00:42:03.059Z,2.95
2023-11-17T00:45:28.825Z,2.85
2023-11-17T00:48:54.341Z,3.03
2023-11-17T00:52:20.210Z,3.15
2023-11-17T00:55:50.473Z,2.95
2023-11-17T00:59:16.621Z,3.08
2023-11-17T01:02:42.311Z,3.38
2023-11-17T01:06:08.430Z,3.55
2023-11-17T01:09:35.203Z,2.85
2023-11-17T01:13:05.165Z,3.05
2023-11-17T01:16:32.492Z,3.10
2023-11-17T01:19:58.592Z,3.38
2023-11-17T01:23:26.509Z,3.45
2023-11-17T01:26:52.210Z,3.17
2023-11-17T01:30:22.284Z,3.30
2023-11-17T01:33:49.910Z,3.08
2023-11-17T01:37:15.391Z,2.70
2023-11-17T01:40:41.314Z,2.75
2023-11-17T01:44:07.321Z,3.25
2023-11-17T01:47:35.665Z,3.78
2023-11-17T01:51:02.391Z,3.03
2023-11-17T01:54:29.983Z,3.45
2023-11-17T01:57:56.327Z,3.17
2023-11-17T02:01:22.163Z,2.90
2023-11-17T02:04:52.446Z,3.22
2023-11-17T02:08:23.037Z,3.28
2023-11-17T02:11:53.197Z,3.88
2023-11-17T02:15:23.122Z,3.33
2023-11-17T02:18:51.422Z,3.10
2023-11-17T02:22:23.008Z,3.25
2023-11-17T02:25:52.481Z,3.97
2023-11-17T02:29:28.968Z,3.65
2023-11-17T02:32:56.231Z,3.53
2023-11-17T02:36:22.052Z,3.53
2023-11-17T02:39:47.513Z,2.97
2023-11-17T02:43:13.922Z,3.30
2023-11-17T02:46:48.332Z,3.70
2023-11-17T02:50:19.728Z,3.25
2023-11-17T02:53:45.427Z,3.60
2023-11-17T02:57:11.629Z,3.60
2023-11-17T03:00:37.138Z,3.45
2023-11-17T03:04:05.862Z,3.55
2023-11-17T03:07:32.254Z,3.35
2023-11-17T03:11:02.409Z,3.22
2023-11-17T03:14:28.250Z,3.58
2023-11-17T03:17:54.673Z,3.47
2023-11-17T03:21:24.908Z,3.50
2023-11-17T03:24:50.770Z,3.35
2023-11-17T03:28:16.338Z,3.00
2023-11-17T03:31:42.340Z,3.05
2023-11-17T03:35:08.296Z,3.10
2023-11-17T03:38:36.986Z,3.42
2023-11-17T03:42:03.865Z,3.20
2023-11-17T03:45:30.065Z,3.60
2023-11-17T03:48:55.513Z,2.88
2023-11-17T03:52:24.798Z,3.20
2023-11-17T03:55:53.984Z,2.88
2023-11-17T03:59:20.221Z,2.97
2023-11-17T04:02:45.979Z,3.42
2023-11-17T04:06:11.988Z,3.53
2023-11-17T04:09:38.842Z,3.17
2023-11-17T04:13:07.286Z,3.30
2023-11-17T04:16:34.010Z,2.90
2023-11-17T04:19:59.418Z,2.63
2023-11-17T04:23:27.616Z,3.08
2023-11-17T04:26:53.302Z,3.20
2023-11-17T04:30:22.361Z,3.33
2023-11-17T04:33:50.553Z,3.17
2023-11-17T04:37:16.339Z,3.05
2023-11-17T04:40:42.872Z,2.75
2023-11-17T04:44:08.901Z,2.72
2023-11-17T04:47:40.324Z,2.88
2023-11-17T04:51:07.785Z,3.60
2023-11-17T04:54:34.372Z,3.28
2023-11-17T04:58:00.123Z,3.22
2023-11-17T05:01:25.677Z,3.13
2023-11-17T05:04:54.162Z,2.97
2023-11-17T05:08:20.021Z,2.88
2023-11-17T05:11:45.825Z,2.72
2023-11-17T05:15:14.018Z,3.15
2023-11-17T05:18:39.895Z,2.83
2023-11-17T05:22:08.313Z,2.80
2023-11-17T05:25:34.136Z,3.22
2023-11-17T05:28:59.628Z,2.97
2023-11-17T05:32:27.588Z,3.03
2023-11-17T05:35:53.495Z,3.05
2023-11-17T05:39:22.089Z,2.97
2023-11-17T05:42:47.482Z,2.92
2023-11-17T05:46:14.133Z,2.95
2023-11-17T05:49:44.500Z,2.90
2023-11-17T05:53:10.922Z,3.13
2023-11-17T05:56:39.320Z,2.95
2023-11-17T06:00:10.273Z,3.25
2023-11-17T06:03:36.592Z,2.67
2023-11-17T06:07:03.463Z,2.72
2023-11-17T06:10:29.082Z,3.17
2023-11-17T06:13:58.023Z,3.03
2023-11-17T06:17:29.286Z,2.85
2023-11-17T06:20:58.597Z,3.10
2023-11-17T06:24:27.240Z,3.00
2023-11-17T06:27:56.456Z,3.22
2023-11-17T06:31:27.382Z,3.30
2023-11-17T06:34:53.762Z,3.92
2023-11-17T06:38:19.812Z,3.63
2023-11-17T06:41:49.171Z,4.10
2023-11-17T06:45:16.816Z,4.20
2023-11-17T06:48:48.813Z,4.80
2023-11-17T06:52:14.730Z,5.85
2023-11-17T06:55:43.128Z,5.90
2023-11-17T06:59:10.242Z,4.07
2023-11-17T07:02:36.766Z,4.80
2023-11-17T07:06:05.587Z,4.03
2023-11-17T07:09:38.357Z,3.80
2023-11-17T07:13:05.489Z,4.57
2023-11-17T07:16:45.114Z,3.95
2023-11-17T07:20:16.141Z,4.88
2023-11-17T07:23:45.589Z,3.80
2023-11-17T07:27:12.903Z,3.83
2023-11-17T07:30:38.821Z,4.35
2023-11-17T07:34:06.834Z,4.05
2023-11-17T07:37:35.324Z,3.63
2023-11-17T07:41:04.298Z,4.30
2023-11-17T07:44:37.555Z,3.70
2023-11-17T07:48:04.753Z,4.65
2023-11-17T07:51:30.571Z,3.25
2023-11-17T07:54:57.524Z,3.45
2023-11-17T07:58:28.284Z,4.57
2023-11-17T08:01:58.647Z,4.22
2023-11-17T08:05:26.726Z,3.55
2023-11-17T08:08:57.432Z,3.75
2023-11-17T08:12:24.767Z,3.35
2023-11-17T08:15:56.542Z,3.78
2023-11-17T08:19:25.561Z,3.10
2023-11-17T08:22:53.127Z,3.05
2023-11-17T08:26:20.553Z,2.97
2023-11-17T08:29:47.020Z,3.30
2023-11-17T08:33:20.333Z,3.47
2023-11-17T08:36:46.298Z,3.60
2023-11-17T08:40:12.705Z,2.80
2023-11-17T08:43:39.440Z,3.25
2023-11-17T08:47:06.735Z,3.28
2023-11-17T08:50:35.041Z,3.13
2023-11-17T08:54:04.083Z,2.88
2023-11-17T08:57:31.664Z,3.05
2023-11-17T09:00:59.702Z,3.10
2023-11-17T09:04:25.919Z,3.33
2023-11-17T09:07:55.352Z,3.10
2023-11-17T09:11:21.677Z,3.10
2023-11-17T09:14:47.437Z,3.28
2023-11-17T09:18:19.632Z,3.10
2023-11-17T09:21:48.376Z,2.95
2023-11-17T09:25:18.868Z,3.03
2023-11-17T09:28:45.302Z,2.80
2023-11-17T09:32:13.596Z,2.75
2023-11-17T09:35:40.230Z,2.90
2023-11-17T09:39:10.251Z,2.72
2023-11-17T09:42:41.591Z,2.80
2023-11-17T09:46:08.353Z,2.97
2023-11-17T09:49:37.399Z,2.65
2023-11-17T09:53:03.394Z,3.00
2023-11-17T09:56:33.342Z,2.40
2023-11-17T10:00:02.136Z,2.42
2023-11-17T10:03:31.434Z,3.03
2023-11-17T10:06:58.430Z,2.30
2023-11-17T10:10:24.948Z,2.42
2023-11-17T10:13:52.958Z,2.30
2023-11-17T10:17:21.586Z,2.60
2023-11-17T10:20:49.793Z,3.05
2023-11-17T10:24:18.115Z,2.70
2023-11-17T10:27:48.971Z,2.83
2023-11-17T10:31:14.600Z,3.60
2023-11-17T10:34:44.009Z,3.38
2023-11-17T10:38:17.836Z,3.03
2023-11-17T10:41:44.099Z,3.20
2023-11-17T10:45:20.855Z,2.67
2023-11-17T10:48:47.758Z,3.25
2023-11-17T10:52:28.558Z,3.40
2023-11-17T10:55:58.161Z,3.00
2023-11-17T10:59:24.675Z,3.17
2023-11-17T11:02:52.198Z,3.17
2023-11-17T11:06:17.982Z,2.95
2023-11-17T11:09:46.974Z,3.33
2023-11-17T11:13:16.356Z,2.85
2023-11-17T11:16:44.525Z,2.40
2023-11-17T11:20:21.797Z,2.72
2023-11-17T11:23:50.131Z,2.20
2023-11-17T11:27:19.879Z,2.88
2023-11-17T11:30:48.581Z,6.03
2023-11-17T11:34:14.494Z,4.50
2023-11-17T11:37:40.804Z,2.40
2023-11-17T11:41:13.057Z,1.85
2023-11-17T11:44:43.227Z,2.63
2023-11-17T11:48:09.587Z,2.20
2023-11-17T11:51:44.204Z,2.75
2023-11-17T11:55:10.667Z,2.05
2023-11-17T11:58:36.852Z,2.28
2023-11-17T12:02:07.557Z,1.80
2023-11-17T12:05:35.305Z,1.85
2023-11-17T12:09:01.999Z,2.00
2023-11-17T12:12:28.245Z,1.60
2023-11-17T12:15:54.392Z,1.58
2023-11-17T12:19:26.702Z,1.40
2023-11-17T12:23:02.504Z,1.77
2023-11-17T12:26:31.108Z,1.45
2023-11-17T12:30:06.298Z,1.50
2023-11-17T12:33:32.063Z,1.70
2023-11-17T12:37:02.127Z,1.60
2023-11-17T12:40:29.902Z,1.35
2023-11-17T12:43:56.982Z,1.55
2023-11-17T12:47:30.208Z,1.65
2023-11-17T12:50:59.786Z,2.38
2023-11-17T12:54:29.375Z,2.85
2023-11-17T12:57:55.024Z,2.28
2023-11-17T13:01:21.742Z,3.50
2023-11-17T13:04:47.628Z,3.20
2023-11-17T13:08:15.282Z,4.65
2023-11-17T13:11:48.502Z,5.18
2023-11-17T13:15:15.802Z,3.90
2023-11-17T13:18:42.378Z,4.38
2023-11-17T13:22:10.749Z,5.57
2023-11-17T13:25:37.483Z,5.00
2023-11-17T13:29:20.814Z,4.47
2023-11-17T13:32:54.664Z,4.10
2023-11-17T13:36:23.703Z,3.95
2023-11-17T13:39:50.359Z,2.72
2023-11-17T13:43:18.929Z,2.20
2023-11-17T13:46:50.844Z,2.55
2023-11-17T13:50:18.282Z,1.80
2023-11-17T13:53:47.076Z,1.70
2023-11-17T13:57:13.249Z,1.20
2023-11-17T14:00:43.989Z,1.63
2023-11-17T14:04:13.111Z,1.50
2023-11-17T14:07:39.697Z,1.55
2023-11-17T14:11:06.370Z,4.32
2023-11-17T14:14:32.751Z,4.90
2023-11-17T14:17:59.755Z,6.68
2023-11-17T14:21:28.969Z,3.80
2023-11-17T14:24:54.332Z,4.07
2023-11-17T14:28:20.451Z,6.30
2023-11-17T14:31:46.015Z,6.03
2023-11-17T14:35:12.463Z,6.10
2023-11-17T14:38:40.525Z,6.30
2023-11-17T14:42:09.768Z,5.38
2023-11-17T14:45:35.520Z,5.60
2023-11-17T14:49:02.693Z,4.90
2023-11-17T14:52:32.017Z,4.45
2023-11-17T14:56:01.027Z,3.95
2023-11-17T14:59:27.355Z,4.10
2023-11-17T15:02:53.937Z,4.00
2023-11-17T15:06:23.434Z,4.25
2023-11-17T15:09:48.838Z,4.32
2023-11-17T15:13:19.240Z,3.63
2023-11-17T15:16:44.719Z,4.97
2023-11-17T15:20:11.193Z,4.57
2023-11-17T15:23:36.562Z,3.47
2023-11-17T15:27:04.446Z,4.00
2023-11-17T15:30:33.742Z,4.28
2023-11-17T15:34:01.853Z,9.32
2023-11-17T15:37:30.303Z,17.92
2023-11-17T15:40:57.264Z,21.25
2023-11-17T15:44:23.778Z,27.05
2023-11-17T15:47:53.986Z,24.33
2023-11-17T15:51:21.127Z,15.15
2023-11-17T15:54:49.564Z,15.98
2023-11-17T15:58:15.100Z,25.05
2023-11-17T16:01:41.468Z,45.90
2023-11-17T16:05:15.313Z,50.10
2023-11-17T16:08:41.935Z,33.85
2023-11-17T16:12:07.761Z,44.20
2023-11-17T16:15:34.099Z,28.70
2023-11-17T16:19:04.415Z,37.33
2023-11-17T16:22:33.027Z,28.02
2023-11-17T16:25:58.708Z,19.80
2023-11-17T16:29:26.728Z,19.02
2023-11-17T16:32:53.100Z,13.77
2023-11-17T16:36:21.261Z,11.43
2023-11-17T16:39:53.572Z,7.35
2023-11-17T16:43:19.607Z,10.75
2023-11-17T16:46:51.197Z,10.85
2023-11-17T16:50:20.218Z,6.78
2023-11-17T16:53:48.866Z,7.50
2023-11-17T16:57:17.590Z,6.65
2023-11-17T17:00:45.441Z,6.90
2023-11-17T17:04:11.319Z,5.97
2023-11-17T17:07:39.045Z,7.75
2023-11-17T17:11:06.391Z,7.20
2023-11-17T17:14:37.294Z,7.30
2023-11-17T17:18:07.991Z,6.63
2023-11-17T17:21:37.386Z,8.07
2023-11-17T17:25:03.708Z,11.27
2023-11-17T17:28:30.615Z,8.40
2023-11-17T17:31:59.908Z,8.02
2023-11-17T17:35:27.512Z,8.93
2023-11-17T17:38:57.053Z,9.20
2023-11-17T17:42:22.601Z,12.05
2023-11-17T17:45:50.253Z,18.00
2023-11-17T17:49:19.459Z,11.98
2023-11-17T17:52:48.958Z,12.75
2023-11-17T17:56:14.383Z,14.50
2023-11-17T17:59:40.753Z,12.50
2023-11-17T18:03:07.065Z,12.25
2023-11-17T18:06:37.014Z,12.95
2023-11-17T18:10:02.496Z,12.48
2023-11-17T18:13:28.530Z,10.75
2023-11-17T18:16:54.094Z,10.35
2023-11-17T18:20:20.793Z,9.63
2023-11-17T18:23:48.900Z,9.52
2023-11-17T18:27:14.653Z,8.40
2023-11-17T18:30:40.192Z,7.65
2023-11-17T18:34:06.044Z,7.15
2023-11-17T18:37:32.241Z,7.70
2023-11-17T18:41:00.631Z,8.65
2023-11-17T18:44:25.980Z,7.30
2023-11-17T18:47:52.141Z,7.63
2023-11-17T18:51:17.628Z,6.95
2023-11-17T18:54:43.545Z,7.47
2023-11-17T18:58:11.798Z,8.05
2023-11-17T19:01:38.079Z,8.10
2023-11-17T19:05:06.388Z,7.80
2023-11-17T19:08:32.364Z,7.13
2023-11-17T19:11:57.818Z,7.80
2023-11-17T19:15:26.217Z,6.55
2023-11-17T19:18:51.657Z,7.53
2023-11-17T19:22:17.453Z,8.05
2023-11-17T19:25:42.808Z,8.02
2023-11-17T19:29:08.894Z,6.70
2023-11-17T19:32:37.000Z,6.93
2023-11-17T19:36:08.030Z,7.53
2023-11-17T19:39:35.804Z,7.03
2023-11-17T19:43:04.891Z,6.55
2023-11-17T19:46:30.418Z,7.53
2023-11-17T19:49:58.754Z,6.85
2023-11-17T19:53:24.193Z,7.00
2023-11-17T19:56:53.444Z,6.80
2023-11-17T20:00:24.924Z,6.15
2023-11-17T20:03:52.331Z,6.90
2023-11-17T20:07:20.448Z,6.10
2023-11-17T20:10:46.964Z,6.63
2023-11-17T20:14:15.070Z,6.43
2023-11-17T20:17:49.558Z,6.75
2023-11-17T20:21:20.824Z,6.30
2023-11-17T20:24:49.341Z,6.78
2023-11-17T20:28:16.035Z,7.18
2023-11-17T20:31:42.330Z,6.50
2023-11-17T20:35:09.142Z,6.32
2023-11-17T20:38:39.250Z,5.93
2023-11-17T20:42:07.719Z,6.72
2023-11-17T20:45:34.061Z,6.88
2023-11-17T20:48:59.463Z,6.40
2023-11-17T20:52:25.818Z,5.90
2023-11-17T20:55:51.342Z,6.15
2023-11-17T20:59:19.921Z,5.40
2023-11-17T21:02:45.511Z,5.63
2023-11-17T21:06:13.036Z,4.70
2023-11-17T21:09:38.679Z,5.13
2023-11-17T21:13:06.685Z,5.25
2023-11-17T21:16:34.755Z,5.32
2023-11-17T21:20:00.614Z,4.43
2023-11-17T21:23:26.105Z,5.45
2023-11-17T21:26:51.815Z,5.35
2023-11-17T21:30:20.576Z,5.15
2023-11-17T21:33:51.146Z,4.80
2023-11-17T21:37:16.594Z,4.80
2023-11-17T21:40:42.575Z,5.30
2023-11-17T21:44:08.340Z,5.13
2023-11-17T21:47:34.109Z,4.75
2023-11-17T21:51:02.227Z,4.93
2023-11-17T21:54:27.992Z,4.95
2023-11-17T21:57:55.991Z,5.72
2023-11-17T22:01:22.632Z,7.47
2023-11-17T22:04:48.159Z,7.55
2023-11-17T22:08:16.630Z,7.50
2023-11-17T22:11:42.445Z,6.38
2023-11-17T22:15:10.452Z,7.38
2023-11-17T22:18:36.841Z,9.80
2023-11-17T22:22:02.373Z,8.20
2023-11-17T22:25:31.293Z,8.25
2023-11-17T22:28:56.825Z,7.82
2023-11-17T22:32:25.031Z,7.70
2023-11-17T22:35:51.675Z,7.47
2023-11-17T22:39:17.541Z,6.40
2023-11-17T22:42:46.284Z,5.68
2023-11-17T22:46:18.695Z,7.40
2023-11-17T22:49:44.186Z,12.70
2023-11-17T22:53:11.325Z,12.32
2023-11-17T22:56:36.691Z,7.13
2023-11-17T23:00:13.949Z,6.10
2023-11-17T23:03:39.526Z,5.35
2023-11-17T23:07:07.976Z,4.85
2023-11-17T23:10:34.047Z,5.95
2023-11-17T23:14:00.012Z,4.55
2023-11-17T23:17:28.107Z,6.75
2023-11-17T23:20:53.911Z,5.93
2023-11-17T23:24:19.345Z,6.93
2023-11-17T23:27:45.222Z,7.10
2023-11-17T23:31:15.765Z,8.15
2023-11-17T23:34:44.958Z,7.60
2023-11-17T23:38:11.492Z,8.52
2023-11-17T23:41:37.237Z,7.70
2023-11-17T23:45:03.349Z,8.15
2023-11-17T23:48:29.750Z,8.27
2023-11-17T23:51:57.760Z,9.02
2023-11-17T23:55:23.515Z,7.47
2023-11-17T23:58:49.026Z,7.55
